Location Sebastian, FL, US

ob KFLSEBAS1 180905Z AUTO 02004G10KT BKN042 25/23 A3002 RMK SLPNO 

2017.10.18 0905 UTC
Wind from the NNE (16 degrees) at 5.0 MPH (4 KT) gusting to 11.0 MPH (10 KT)
Visibility    Mile(s)
Sky Conditions  mostly cloudy
Temperature 76.60 F (25 C)
Dew Point 73.12 F (23 C)
Relative Humidity 89%
Pressure   30.02 in. Hg (1017 hPa)
Rain  0.00 in.
Daily Rain  in.

Station Name  www.kflsebas1.com
Longitude, Latitude  -80.48, 27.8
Elevation 23
Station URL www.kflsebas1.com
Software Type VWS V15.00